Monday, January 26, 2015
08:25 UTC
  |  Log In   |  Register Free
Airport Search:

Vidalia Regional Airport
(KVDI)

Vidalia Regional Airport Diagram
No Airport Diagram Available

FAA data valid effective January 08, 2015 - March 05, 2015 (unless otherwise noted).

 
 
 
 
 
 
 
 
 
 
 
 
 
 

Current Aviation Weather for Vidalia Regional Airport (KVDI)

The most recent METAR observation for KVDI was updated at: 0818
METAR Summary (Translated METAR)
KVDI
260755Z AUTO 24005KT 10SM CLR 08/08 A2977 RMK AO2
KAZE
260755Z AUTO 23004KT 10SM CLR 10/10 A2977 RMK AO2 T01010099
(23.2 nm SW from KVDI)
KSBO
260755Z AUTO 26005KT 10SM CLR 09/06 A2976 RMK AO2
(25 nm NE from KVDI)
TAF
No TAF information found within 50 nm of KVDI
  Airport Weather Conditions for KVDI

 Current Weather at VDI
46° F
Fair
Southwest winds at 5.8 mph
VDI NOAA Radar

Pressure: 29.77 in
Humidity: 100%
Wind: Southwest at 5.8 MPH (5 KT)
Dew Point: 46.4°F
Visibility: 10.00 mi


Airport Weather Forecast for KVDI

Translated METAR and TAF for KVDI
Translated METAR for KVDI (0825 UTC 26 January 2015)
found at http://aviationweather.gov/adds/metars/
 
METAR text: KVDI 260815Z AUTO 24005KT 10SM CLR 08/08 A2976 RMK AO2
Conditions at: KVDI (VIDALIA MUNI , GA, US) observed 0815 UTC 26 January 2015
Temperature: 8.0°C (46°F)
Dewpoint: 8.0°C (46°F) [RH = 100%]
Pressure (altimeter): 29.76 inches Hg (1007.9 mb)
Winds: from the WSW (240 degrees) at 6 MPH (5 knots; 2.6 m/s)
Visibility: 10 or more miles (16+ km)
Ceiling: at least 12,000 feet AGL
Clouds: sky clear below 12,000 feet AGL
Weather: automated observation with no human augmentation;
there may or may not be significant weather present at this time
Translated TAF for KVDI

There is no translated TAF available for this airport

Find All Airport Services Find A Hotel Find A Rental Car Find A Golf Course Find A Restaurant $100 Hamburger



FBO's on the Field
FBO Company Facility Photos Services Transportation Aviation Fuel Prices: Prices include tax
Catering Weather Repair Courtesy Rental Type 100LL JetA JetA+ MOGAS 8087
 
Vidalia Regional Airport

This FBO has not yet been rated
FS:Phillips 66
Last Updated: Jan-12
Login to update fuel prices
SS:
Contact Vidalia Regional AirportMore FBO Information
 
Add another FBO Facility Photos Catering Weather Repair Courtesy Rental Type 100LL JetA JetA+ MOGAS 8087
Services Transportation Aviation Fuel Prices: Prices include tax


model-print
model-print
model-print
model-print